createdAt,value
2022-09-21T00:01:45.512Z,88.22
2022-09-21T00:06:48.952Z,88.25
2022-09-21T00:11:58.200Z,88.21
2022-09-21T00:17:02.097Z,88.30
2022-09-21T00:22:05.516Z,88.33
2022-09-21T00:27:08.931Z,88.36
2022-09-21T00:32:12.243Z,88.26
2022-09-21T00:37:15.559Z,88.16
2022-09-21T00:42:26.548Z,88.17
2022-09-21T00:47:46.040Z,88.22
2022-09-21T00:52:57.027Z,88.17
2022-09-21T00:58:09.556Z,88.11
2022-09-21T01:03:13.744Z,88.00
2022-09-21T01:08:18.880Z,87.88
2022-09-21T01:14:04.248Z,87.79
2022-09-21T01:19:46.152Z,87.63
2022-09-21T01:25:24.589Z,87.56
2022-09-21T01:30:34.177Z,87.54
2022-09-21T01:36:09.105Z,87.63
2022-09-21T01:41:16.706Z,87.66
2022-09-21T01:46:26.066Z,87.63
2022-09-21T01:51:29.991Z,87.62
2022-09-21T01:56:44.874Z,87.54
2022-09-21T02:02:19.901Z,87.53
2022-09-21T02:07:25.308Z,87.61
2022-09-21T02:12:28.718Z,87.48
2022-09-21T02:18:10.517Z,87.49
2022-09-21T02:23:33.083Z,87.47
2022-09-21T02:28:51.649Z,87.50
2022-09-21T02:34:13.089Z,87.57
2022-09-21T02:39:50.701Z,87.73
2022-09-21T02:45:09.477Z,87.74
2022-09-21T02:50:26.303Z,87.84
2022-09-21T02:55:31.559Z,87.99
2022-09-21T03:00:36.332Z,88.00
2022-09-21T03:05:39.720Z,88.14
2022-09-21T03:10:43.029Z,88.21
2022-09-21T03:15:47.494Z,88.15
2022-09-21T03:20:50.887Z,88.11
2022-09-21T03:25:54.912Z,88.26
2022-09-21T03:30:58.403Z,88.29
2022-09-21T03:36:02.760Z,88.36
2022-09-21T03:41:07.305Z,88.36
2022-09-21T03:46:10.645Z,88.43
2022-09-21T03:51:14.751Z,88.50
2022-09-21T03:56:18.065Z,88.57
2022-09-21T04:01:21.448Z,88.57
2022-09-21T04:06:25.402Z,88.51
2022-09-21T04:11:29.498Z,88.43
2022-09-21T04:16:32.835Z,88.41
2022-09-21T04:21:36.146Z,88.39
2022-09-21T04:26:41.380Z,88.33
2022-09-21T04:31:44.613Z,88.29
2022-09-21T04:36:48.438Z,88.30
2022-09-21T04:41:52.245Z,88.39
2022-09-21T04:46:55.573Z,88.39
2022-09-21T04:51:58.885Z,88.39
2022-09-21T04:57:02.157Z,88.39
2022-09-21T05:02:05.513Z,88.43
2022-09-21T05:07:09.442Z,88.39
2022-09-21T05:12:12.791Z,88.25
2022-09-21T05:17:16.569Z,88.12
2022-09-21T05:22:21.312Z,88.01
2022-09-21T05:27:24.624Z,88.01
2022-09-21T05:32:58.209Z,88.04
2022-09-21T05:38:16.304Z,88.15
2022-09-21T05:43:20.399Z,88.07
2022-09-21T05:48:51.704Z,88.11
2022-09-21T05:54:29.113Z,88.08
2022-09-21T05:59:47.373Z,87.88
2022-09-21T06:04:54.478Z,87.74
2022-09-21T06:09:57.783Z,87.65
2022-09-21T06:15:01.167Z,87.41
2022-09-21T06:20:07.479Z,87.07
2022-09-21T06:25:11.099Z,86.67
2022-09-21T06:30:14.633Z,86.42
2022-09-21T06:35:17.926Z,86.27
2022-09-21T06:40:21.269Z,86.04
2022-09-21T06:45:25.776Z,85.89
2022-09-21T06:50:29.212Z,85.76
2022-09-21T06:55:33.011Z,85.64
2022-09-21T07:00:36.528Z,85.71
2022-09-21T07:05:40.414Z,85.49
2022-09-21T07:10:44.175Z,85.32
2022-09-21T07:15:50.264Z,85.12
2022-09-21T07:20:56.532Z,85.02
2022-09-21T07:26:07.832Z,84.89
2022-09-21T07:31:15.379Z,84.57
2022-09-21T07:36:18.961Z,84.48
2022-09-21T07:41:22.784Z,83.93
2022-09-21T07:46:26.197Z,84.03
2022-09-21T07:51:29.934Z,83.96
2022-09-21T07:56:33.229Z,83.92
2022-09-21T08:01:42.387Z,83.69
2022-09-21T08:06:45.790Z,83.41
2022-09-21T08:11:49.205Z,83.41
2022-09-21T08:16:52.709Z,82.72
2022-09-21T08:21:57.814Z,82.32
2022-09-21T08:27:01.904Z,81.64
2022-09-21T08:32:05.682Z,81.42
2022-09-21T08:37:09.572Z,81.32
2022-09-21T08:42:28.222Z,81.14
2022-09-21T08:47:38.315Z,79.67
2022-09-21T08:52:42.934Z,79.61
2022-09-21T08:57:47.784Z,79.95
2022-09-21T09:03:24.592Z,80.36
2022-09-21T09:08:48.167Z,81.18
2022-09-21T09:14:47.801Z,81.46
2022-09-21T09:20:03.703Z,81.19
2022-09-21T09:25:22.495Z,81.15
2022-09-21T09:30:34.086Z,81.21
2022-09-21T09:36:00.491Z,81.36
2022-09-21T09:41:32.522Z,81.00
2022-09-21T09:46:57.692Z,80.92
2022-09-21T09:52:01.974Z,80.54
2022-09-21T09:57:07.547Z,80.52
2022-09-21T10:02:22.195Z,80.81
2022-09-21T10:07:39.216Z,80.46
2022-09-21T10:12:52.097Z,79.86
2022-09-21T10:18:16.231Z,77.57
2022-09-21T10:23:20.116Z,76.57
2022-09-21T10:28:24.778Z,76.11
2022-09-21T10:33:28.170Z,76.64
2022-09-21T10:38:32.705Z,77.14
2022-09-21T10:43:45.867Z,76.45
2022-09-21T10:48:49.590Z,74.93
2022-09-21T10:53:54.418Z,73.51
2022-09-21T10:59:19.421Z,73.16
2022-09-21T11:04:48.048Z,70.02
2022-09-21T11:10:05.712Z,70.44
2022-09-21T11:15:55.874Z,69.64
2022-09-21T11:21:15.924Z,70.08
2022-09-21T11:26:19.114Z,67.18
2022-09-21T11:31:53.145Z,67.81
2022-09-21T11:37:24.007Z,70.51
2022-09-21T11:43:15.037Z,72.13
2022-09-21T11:48:56.771Z,73.06
2022-09-21T11:55:14.823Z,73.56
2022-09-21T12:00:22.117Z,73.49
2022-09-21T12:05:34.950Z,73.88
2022-09-21T12:10:57.630Z,74.03
2022-09-21T12:16:21.569Z,73.10
2022-09-21T12:21:33.460Z,71.96
2022-09-21T12:26:46.292Z,71.42
2022-09-21T12:32:05.440Z,71.70
2022-09-21T12:37:25.647Z,72.82
2022-09-21T12:42:51.385Z,73.58
2022-09-21T12:48:32.174Z,73.89
2022-09-21T12:53:38.997Z,74.18
2022-09-21T12:59:08.191Z,74.54
2022-09-21T13:04:29.420Z,74.68
2022-09-21T13:09:33.652Z,74.85
2022-09-21T13:14:43.833Z,74.59
2022-09-21T13:20:20.646Z,74.69
2022-09-21T13:25:28.334Z,75.17
2022-09-21T13:30:48.802Z,75.29
2022-09-21T13:36:02.419Z,75.49
2022-09-21T13:41:40.291Z,75.85
2022-09-21T13:46:55.478Z,75.86
2022-09-21T13:52:14.090Z,74.43
2022-09-21T13:57:42.006Z,73.69
2022-09-21T14:02:51.315Z,73.81
2022-09-21T14:08:15.024Z,74.47
2022-09-21T14:13:39.263Z,75.34
2022-09-21T14:18:42.957Z,76.25
2022-09-21T14:24:08.168Z,76.11
2022-09-21T14:29:42.005Z,76.65
2022-09-21T14:34:49.377Z,76.86
2022-09-21T14:39:53.638Z,76.64
2022-09-21T14:45:03.996Z,76.57
2022-09-21T14:50:30.334Z,76.43
2022-09-21T14:56:04.697Z,76.38
2022-09-21T15:01:33.606Z,76.01
2022-09-21T15:07:17.162Z,76.24
2022-09-21T15:12:46.996Z,76.32
2022-09-21T15:18:00.959Z,76.03
2022-09-21T15:23:20.214Z,75.85
2022-09-21T15:28:24.281Z,75.68
2022-09-21T15:33:28.095Z,75.76
2022-09-21T15:38:35.917Z,75.75
2022-09-21T15:43:41.528Z,75.85
2022-09-21T15:48:47.458Z,76.19
2022-09-21T15:54:22.609Z,76.42
2022-09-21T15:59:26.944Z,76.58
2022-09-21T16:04:32.197Z,76.79
2022-09-21T16:09:45.392Z,76.99
2022-09-21T16:15:03.236Z,77.25
2022-09-21T16:20:21.459Z,77.44
2022-09-21T16:25:32.788Z,77.54
2022-09-21T16:30:51.405Z,77.75
2022-09-21T16:35:57.348Z,78.05
2022-09-21T16:41:02.823Z,78.30
2022-09-21T16:46:08.507Z,78.54
2022-09-21T16:51:14.761Z,78.65
2022-09-21T16:56:18.470Z,78.78
2022-09-21T17:01:22.057Z,78.87
2022-09-21T17:06:25.465Z,79.00
2022-09-21T17:11:30.106Z,79.22
2022-09-21T17:16:34.048Z,79.54
2022-09-21T17:21:38.572Z,79.63
2022-09-21T17:26:44.029Z,79.67
2022-09-21T17:31:51.438Z,79.79
2022-09-21T17:36:55.997Z,79.94
2022-09-21T17:42:21.637Z,80.14
2022-09-21T17:47:32.911Z,80.20
2022-09-21T17:52:55.458Z,80.36
2022-09-21T17:58:25.817Z,80.42
2022-09-21T18:03:36.212Z,80.68
2022-09-21T18:08:41.248Z,80.72
2022-09-21T18:14:05.042Z,80.83
2022-09-21T18:19:39.380Z,80.72
2022-09-21T18:24:44.242Z,80.96
2022-09-21T18:29:48.320Z,81.07
2022-09-21T18:35:22.081Z,81.22
2022-09-21T18:41:04.509Z,81.42
2022-09-21T18:46:18.752Z,81.32
2022-09-21T18:51:35.719Z,81.32
2022-09-21T18:56:40.528Z,81.39
2022-09-21T19:01:47.231Z,81.57
2022-09-21T19:07:49.755Z,81.67
2022-09-21T19:13:10.962Z,81.86
2022-09-21T19:18:54.242Z,81.91
2022-09-21T19:24:42.797Z,81.96
2022-09-21T19:30:06.490Z,82.21
2022-09-21T19:35:34.102Z,82.32
2022-09-21T19:40:40.594Z,82.33
2022-09-21T19:46:24.997Z,82.43
2022-09-21T19:51:49.847Z,82.50
2022-09-21T19:57:11.981Z,82.44
2022-09-21T20:02:36.107Z,82.52
2022-09-21T20:07:52.109Z,82.61
2022-09-21T20:13:31.646Z,82.93
2022-09-21T20:19:26.958Z,83.11
2022-09-21T20:24:58.887Z,83.47
2022-09-21T20:30:05.671Z,83.79
2022-09-21T20:35:21.786Z,83.83
2022-09-21T20:40:26.533Z,83.91
2022-09-21T20:45:32.559Z,83.83
2022-09-21T20:50:36.632Z,83.78
2022-09-21T20:55:41.482Z,83.64
2022-09-21T21:00:46.098Z,83.76
2022-09-21T21:05:49.512Z,83.79
2022-09-21T21:10:56.331Z,83.91
2022-09-21T21:16:00.461Z,83.96
2022-09-21T21:21:05.003Z,83.93
2022-09-21T21:26:08.415Z,83.94
2022-09-21T21:31:12.340Z,83.95
2022-09-21T21:36:15.861Z,84.07
2022-09-21T21:41:19.396Z,84.12
2022-09-21T21:46:22.907Z,84.20
2022-09-21T21:51:26.517Z,84.36
2022-09-21T21:56:30.033Z,84.54
2022-09-21T22:01:33.706Z,84.43
2022-09-21T22:06:40.066Z,84.53
2022-09-21T22:11:43.544Z,84.61
2022-09-21T22:16:46.970Z,84.77
2022-09-21T22:21:54.035Z,84.66
2022-09-21T22:26:58.289Z,84.36
2022-09-21T22:32:02.711Z,84.32
2022-09-21T22:37:06.246Z,84.42
2022-09-21T22:42:11.880Z,84.47
2022-09-21T22:47:15.225Z,84.62
2022-09-21T22:52:18.533Z,84.77
2022-09-21T22:57:21.942Z,84.83
2022-09-21T23:02:25.563Z,84.76
2022-09-21T23:07:28.877Z,84.81
2022-09-21T23:12:32.143Z,84.86
2022-09-21T23:17:35.899Z,84.65
2022-09-21T23:22:39.936Z,84.60
2022-09-21T23:27:43.554Z,84.72
2022-09-21T23:32:49.528Z,84.85
2022-09-21T23:37:53.043Z,84.88
2022-09-21T23:42:56.359Z,84.86
2022-09-21T23:47:59.700Z,85.07
2022-09-21T23:53:03.594Z,85.04
2022-09-21T23:58:07.114Z,85.07
